sensor_id;sensor_type;location;lat;lon;timestamp;P1;durP1;ratioP1;P2;durP2;ratioP2
19554;SDS011;9924;50.828;6.440;2023-08-06T00:00:20;1.77;;;1.38;;
19554;SDS011;9924;50.828;6.440;2023-08-06T00:02:46;1.17;;;1.00;;
19554;SDS011;9924;50.828;6.440;2023-08-06T00:05:12;2.40;;;1.08;;
19554;SDS011;9924;50.828;6.440;2023-08-06T00:07:38;3.83;;;1.63;;
19554;SDS011;9924;50.828;6.440;2023-08-06T00:10:04;1.88;;;1.27;;
19554;SDS011;9924;50.828;6.440;2023-08-06T00:12:30;1.67;;;1.23;;
19554;SDS011;9924;50.828;6.440;2023-08-06T00:14:56;3.00;;;1.30;;
19554;SDS011;9924;50.828;6.440;2023-08-06T00:17:22;1.50;;;1.20;;
19554;SDS011;9924;50.828;6.440;2023-08-06T00:19:47;2.42;;;1.33;;
19554;SDS011;9924;50.828;6.440;2023-08-06T00:22:13;1.88;;;1.33;;
19554;SDS011;9924;50.828;6.440;2023-08-06T00:24:39;1.70;;;1.20;;
19554;SDS011;9924;50.828;6.440;2023-08-06T00:27:04;1.10;;;0.82;;
19554;SDS011;9924;50.828;6.440;2023-08-06T00:29:30;2.72;;;1.20;;
19554;SDS011;9924;50.828;6.440;2023-08-06T00:31:56;1.92;;;1.25;;
19554;SDS011;9924;50.828;6.440;2023-08-06T00:34:22;1.50;;;1.10;;
19554;SDS011;9924;50.828;6.440;2023-08-06T00:36:47;1.50;;;1.15;;
19554;SDS011;9924;50.828;6.440;2023-08-06T00:39:13;1.20;;;0.90;;
19554;SDS011;9924;50.828;6.440;2023-08-06T00:41:39;1.20;;;1.00;;
19554;SDS011;9924;50.828;6.440;2023-08-06T00:44:04;2.70;;;1.33;;
19554;SDS011;9924;50.828;6.440;2023-08-06T00:46:31;2.20;;;1.10;;
19554;SDS011;9924;50.828;6.440;2023-08-06T00:48:58;2.13;;;1.08;;
19554;SDS011;9924;50.828;6.440;2023-08-06T00:51:25;1.92;;;1.15;;
19554;SDS011;9924;50.828;6.440;2023-08-06T00:53:51;1.52;;;1.10;;
19554;SDS011;9924;50.828;6.440;2023-08-06T00:56:18;1.83;;;1.33;;
19554;SDS011;9924;50.828;6.440;2023-08-06T00:58:44;1.88;;;0.98;;
19554;SDS011;9924;50.828;6.440;2023-08-06T01:01:11;3.47;;;1.17;;
19554;SDS011;9924;50.828;6.440;2023-08-06T01:03:37;5.30;;;1.55;;
19554;SDS011;9924;50.828;6.440;2023-08-06T01:06:03;3.45;;;1.20;;
19554;SDS011;9924;50.828;6.440;2023-08-06T01:11:33;1.98;;;0.95;;
19554;SDS011;9924;50.828;6.440;2023-08-06T01:14:21;2.38;;;1.10;;
19554;SDS011;9924;50.828;6.440;2023-08-06T01:16:53;2.78;;;0.98;;
19554;SDS011;9924;50.828;6.440;2023-08-06T01:19:20;3.08;;;1.27;;
19554;SDS011;9924;50.828;6.440;2023-08-06T01:21:47;2.00;;;1.00;;
19554;SDS011;9924;50.828;6.440;2023-08-06T01:24:13;7.47;;;1.38;;
19554;SDS011;9924;50.828;6.440;2023-08-06T01:26:40;4.30;;;1.33;;
19554;SDS011;9924;50.828;6.440;2023-08-06T01:31:38;3.45;;;1.35;;
19554;SDS011;9924;50.828;6.440;2023-08-06T01:34:09;2.40;;;1.42;;
19554;SDS011;9924;50.828;6.440;2023-08-06T01:36:39;2.50;;;1.30;;
19554;SDS011;9924;50.828;6.440;2023-08-06T01:39:05;2.63;;;1.40;;
19554;SDS011;9924;50.828;6.440;2023-08-06T01:41:31;1.70;;;1.10;;
19554;SDS011;9924;50.828;6.440;2023-08-06T01:43:57;1.33;;;1.00;;
19554;SDS011;9924;50.828;6.440;2023-08-06T01:46:23;1.80;;;1.20;;
19554;SDS011;9924;50.828;6.440;2023-08-06T01:48:48;5.07;;;1.48;;
19554;SDS011;9924;50.828;6.440;2023-08-06T01:51:14;4.03;;;1.20;;
19554;SDS011;9924;50.828;6.440;2023-08-06T01:53:40;2.03;;;1.40;;
19554;SDS011;9924;50.828;6.440;2023-08-06T01:56:06;2.78;;;1.20;;
19554;SDS011;9924;50.828;6.440;2023-08-06T01:58:31;1.25;;;1.10;;
19554;SDS011;9924;50.828;6.440;2023-08-06T02:03:47;2.38;;;0.98;;
19554;SDS011;9924;50.828;6.440;2023-08-06T02:06:13;5.18;;;1.17;;
19554;SDS011;9924;50.828;6.440;2023-08-06T02:08:39;1.83;;;1.33;;
19554;SDS011;9924;50.828;6.440;2023-08-06T02:11:05;3.05;;;1.08;;
19554;SDS011;9924;50.828;6.440;2023-08-06T02:13:30;2.80;;;1.27;;
19554;SDS011;9924;50.828;6.440;2023-08-06T02:15:56;2.35;;;1.30;;
19554;SDS011;9924;50.828;6.440;2023-08-06T02:18:22;2.42;;;1.10;;
19554;SDS011;9924;50.828;6.440;2023-08-06T02:20:57;2.08;;;1.20;;
19554;SDS011;9924;50.828;6.440;2023-08-06T02:23:24;3.13;;;0.93;;
19554;SDS011;9924;50.828;6.440;2023-08-06T02:25:56;1.70;;;1.02;;
19554;SDS011;9924;50.828;6.440;2023-08-06T02:28:26;1.52;;;1.00;;
19554;SDS011;9924;50.828;6.440;2023-08-06T02:30:52;4.82;;;1.10;;
19554;SDS011;9924;50.828;6.440;2023-08-06T02:33:18;1.60;;;0.85;;
19554;SDS011;9924;50.828;6.440;2023-08-06T02:35:44;2.33;;;1.10;;
19554;SDS011;9924;50.828;6.440;2023-08-06T02:38:10;1.85;;;0.93;;
19554;SDS011;9924;50.828;6.440;2023-08-06T02:40:35;4.32;;;1.25;;
19554;SDS011;9924;50.828;6.440;2023-08-06T02:43:01;1.00;;;0.90;;
19554;SDS011;9924;50.828;6.440;2023-08-06T02:45:27;2.75;;;0.85;;
19554;SDS011;9924;50.828;6.440;2023-08-06T02:47:54;1.42;;;0.85;;
19554;SDS011;9924;50.828;6.440;2023-08-06T02:50:20;1.95;;;1.20;;
19554;SDS011;9924;50.828;6.440;2023-08-06T02:52:45;2.33;;;0.65;;
19554;SDS011;9924;50.828;6.440;2023-08-06T02:55:11;1.80;;;1.20;;
19554;SDS011;9924;50.828;6.440;2023-08-06T02:57:37;2.35;;;1.20;;
19554;SDS011;9924;50.828;6.440;2023-08-06T03:00:03;1.25;;;0.90;;
19554;SDS011;9924;50.828;6.440;2023-08-06T03:02:29;3.03;;;1.08;;
19554;SDS011;9924;50.828;6.440;2023-08-06T03:04:55;2.75;;;0.93;;
19554;SDS011;9924;50.828;6.440;2023-08-06T03:07:20;1.95;;;0.77;;
19554;SDS011;9924;50.828;6.440;2023-08-06T03:09:46;1.73;;;0.90;;
19554;SDS011;9924;50.828;6.440;2023-08-06T03:12:12;5.15;;;1.02;;
19554;SDS011;9924;50.828;6.440;2023-08-06T03:14:38;1.27;;;0.98;;
19554;SDS011;9924;50.828;6.440;2023-08-06T03:17:03;2.95;;;1.13;;
19554;SDS011;9924;50.828;6.440;2023-08-06T03:19:29;3.97;;;1.10;;
19554;SDS011;9924;50.828;6.440;2023-08-06T03:21:55;9.88;;;2.85;;
19554;SDS011;9924;50.828;6.440;2023-08-06T03:24:21;4.63;;;1.30;;
19554;SDS011;9924;50.828;6.440;2023-08-06T03:26:46;1.67;;;1.00;;
19554;SDS011;9924;50.828;6.440;2023-08-06T03:29:12;2.42;;;1.02;;
19554;SDS011;9924;50.828;6.440;2023-08-06T03:31:38;3.05;;;1.25;;
19554;SDS011;9924;50.828;6.440;2023-08-06T03:34:04;3.38;;;1.00;;
19554;SDS011;9924;50.828;6.440;2023-08-06T03:36:30;2.35;;;1.20;;
19554;SDS011;9924;50.828;6.440;2023-08-06T03:38:55;5.32;;;1.10;;
19554;SDS011;9924;50.828;6.440;2023-08-06T03:41:21;3.63;;;1.35;;
19554;SDS011;9924;50.828;6.440;2023-08-06T03:43:47;2.05;;;1.15;;
19554;SDS011;9924;50.828;6.440;2023-08-06T03:46:13;2.42;;;1.40;;
19554;SDS011;9924;50.828;6.440;2023-08-06T03:48:39;2.33;;;1.33;;
19554;SDS011;9924;50.828;6.440;2023-08-06T03:51:04;3.80;;;1.15;;
19554;SDS011;9924;50.828;6.440;2023-08-06T03:53:30;3.00;;;0.95;;
19554;SDS011;9924;50.828;6.440;2023-08-06T03:55:56;2.40;;;1.17;;
19554;SDS011;9924;50.828;6.440;2023-08-06T03:58:25;2.10;;;1.33;;
19554;SDS011;9924;50.828;6.440;2023-08-06T04:00:58;1.73;;;1.00;;
19554;SDS011;9924;50.828;6.440;2023-08-06T04:03:24;3.78;;;1.17;;
19554;SDS011;9924;50.828;6.440;2023-08-06T04:05:50;2.72;;;1.45;;
19554;SDS011;9924;50.828;6.440;2023-08-06T04:08:16;3.30;;;1.42;;
19554;SDS011;9924;50.828;6.440;2023-08-06T04:10:41;4.45;;;1.25;;
19554;SDS011;9924;50.828;6.440;2023-08-06T04:13:07;3.97;;;1.15;;
19554;SDS011;9924;50.828;6.440;2023-08-06T04:15:33;1.85;;;1.00;;
19554;SDS011;9924;50.828;6.440;2023-08-06T04:17:59;3.63;;;1.27;;
19554;SDS011;9924;50.828;6.440;2023-08-06T04:20:25;3.20;;;1.55;;
19554;SDS011;9924;50.828;6.440;2023-08-06T04:22:54;2.22;;;1.58;;
19554;SDS011;9924;50.828;6.440;2023-08-06T04:25:20;2.92;;;1.20;;
19554;SDS011;9924;50.828;6.440;2023-08-06T04:27:46;2.13;;;1.38;;
19554;SDS011;9924;50.828;6.440;2023-08-06T04:30:12;3.72;;;1.27;;
19554;SDS011;9924;50.828;6.440;2023-08-06T04:32:39;3.45;;;1.15;;
19554;SDS011;9924;50.828;6.440;2023-08-06T04:35:05;3.58;;;1.48;;
19554;SDS011;9924;50.828;6.440;2023-08-06T04:37:31;3.38;;;1.27;;
19554;SDS011;9924;50.828;6.440;2023-08-06T04:39:57;3.45;;;1.10;;
19554;SDS011;9924;50.828;6.440;2023-08-06T04:42:23;3.03;;;1.10;;
19554;SDS011;9924;50.828;6.440;2023-08-06T04:44:49;3.10;;;1.30;;
19554;SDS011;9924;50.828;6.440;2023-08-06T04:47:15;3.05;;;1.27;;
19554;SDS011;9924;50.828;6.440;2023-08-06T04:49:41;4.68;;;1.45;;
19554;SDS011;9924;50.828;6.440;2023-08-06T04:52:06;2.55;;;1.40;;
19554;SDS011;9924;50.828;6.440;2023-08-06T04:54:33;4.25;;;1.80;;
19554;SDS011;9924;50.828;6.440;2023-08-06T04:56:59;2.45;;;1.20;;
19554;SDS011;9924;50.828;6.440;2023-08-06T04:59:24;3.70;;;1.70;;
19554;SDS011;9924;50.828;6.440;2023-08-06T05:01:50;5.10;;;1.77;;
19554;SDS011;9924;50.828;6.440;2023-08-06T05:04:16;4.07;;;1.48;;
19554;SDS011;9924;50.828;6.440;2023-08-06T05:06:41;4.22;;;1.50;;
19554;SDS011;9924;50.828;6.440;2023-08-06T05:09:07;7.03;;;1.45;;
19554;SDS011;9924;50.828;6.440;2023-08-06T05:11:33;5.38;;;1.60;;
19554;SDS011;9924;50.828;6.440;2023-08-06T05:13:58;2.90;;;1.40;;
19554;SDS011;9924;50.828;6.440;2023-08-06T05:16:24;2.65;;;1.75;;
19554;SDS011;9924;50.828;6.440;2023-08-06T05:18:50;3.10;;;1.30;;
19554;SDS011;9924;50.828;6.440;2023-08-06T05:21:16;4.30;;;1.20;;
19554;SDS011;9924;50.828;6.440;2023-08-06T05:23:42;1.88;;;1.02;;
19554;SDS011;9924;50.828;6.440;2023-08-06T05:26:07;4.45;;;1.52;;
19554;SDS011;9924;50.828;6.440;2023-08-06T05:28:34;5.47;;;1.30;;
19554;SDS011;9924;50.828;6.440;2023-08-06T05:31:03;1.88;;;1.20;;
19554;SDS011;9924;50.828;6.440;2023-08-06T05:33:30;4.18;;;1.60;;
19554;SDS011;9924;50.828;6.440;2023-08-06T05:35:56;2.58;;;1.70;;
19554;SDS011;9924;50.828;6.440;2023-08-06T05:38:21;3.45;;;1.25;;
19554;SDS011;9924;50.828;6.440;2023-08-06T05:40:47;2.50;;;1.42;;
19554;SDS011;9924;50.828;6.440;2023-08-06T05:43:14;4.55;;;1.30;;
19554;SDS011;9924;50.828;6.440;2023-08-06T05:45:43;1.90;;;1.40;;
19554;SDS011;9924;50.828;6.440;2023-08-06T05:48:10;4.40;;;1.75;;
19554;SDS011;9924;50.828;6.440;2023-08-06T05:50:36;1.88;;;1.60;;
19554;SDS011;9924;50.828;6.440;2023-08-06T05:53:01;6.90;;;1.65;;
19554;SDS011;9924;50.828;6.440;2023-08-06T05:55:27;3.38;;;1.88;;
19554;SDS011;9924;50.828;6.440;2023-08-06T05:57:53;4.20;;;1.70;;
19554;SDS011;9924;50.828;6.440;2023-08-06T06:00:19;5.15;;;1.67;;
19554;SDS011;9924;50.828;6.440;2023-08-06T06:02:45;3.58;;;1.85;;
19554;SDS011;9924;50.828;6.440;2023-08-06T06:05:11;2.22;;;1.30;;
19554;SDS011;9924;50.828;6.440;2023-08-06T06:07:37;3.97;;;2.10;;
19554;SDS011;9924;50.828;6.440;2023-08-06T06:10:02;4.60;;;1.70;;
19554;SDS011;9924;50.828;6.440;2023-08-06T06:12:28;3.95;;;2.08;;
19554;SDS011;9924;50.828;6.440;2023-08-06T06:14:54;4.03;;;2.13;;
19554;SDS011;9924;50.828;6.440;2023-08-06T06:17:20;4.82;;;2.10;;
19554;SDS011;9924;50.828;6.440;2023-08-06T06:19:45;3.58;;;2.15;;
19554;SDS011;9924;50.828;6.440;2023-08-06T06:22:11;3.42;;;2.40;;
19554;SDS011;9924;50.828;6.440;2023-08-06T06:24:37;3.55;;;2.40;;
19554;SDS011;9924;50.828;6.440;2023-08-06T06:27:03;3.35;;;2.10;;
19554;SDS011;9924;50.828;6.440;2023-08-06T06:29:29;3.60;;;2.50;;
19554;SDS011;9924;50.828;6.440;2023-08-06T06:31:55;3.65;;;2.33;;
19554;SDS011;9924;50.828;6.440;2023-08-06T06:34:20;4.47;;;2.10;;
19554;SDS011;9924;50.828;6.440;2023-08-06T06:36:47;4.80;;;2.10;;
19554;SDS011;9924;50.828;6.440;2023-08-06T06:39:12;4.72;;;2.88;;
19554;SDS011;9924;50.828;6.440;2023-08-06T06:41:38;6.88;;;3.13;;
19554;SDS011;9924;50.828;6.440;2023-08-06T06:44:05;5.15;;;3.42;;
19554;SDS011;9924;50.828;6.440;2023-08-06T06:46:31;6.82;;;2.63;;
19554;SDS011;9924;50.828;6.440;2023-08-06T06:48:56;5.88;;;3.20;;
19554;SDS011;9924;50.828;6.440;2023-08-06T06:51:22;6.03;;;3.35;;
19554;SDS011;9924;50.828;6.440;2023-08-06T06:53:48;6.85;;;3.50;;
19554;SDS011;9924;50.828;6.440;2023-08-06T06:56:14;4.22;;;2.90;;
19554;SDS011;9924;50.828;6.440;2023-08-06T06:58:40;7.03;;;3.28;;
19554;SDS011;9924;50.828;6.440;2023-08-06T07:01:06;4.93;;;3.28;;
19554;SDS011;9924;50.828;6.440;2023-08-06T07:03:32;5.70;;;3.47;;
19554;SDS011;9924;50.828;6.440;2023-08-06T07:05:58;6.45;;;3.85;;
19554;SDS011;9924;50.828;6.440;2023-08-06T07:08:25;4.38;;;3.50;;
19554;SDS011;9924;50.828;6.440;2023-08-06T07:10:59;5.13;;;3.75;;
19554;SDS011;9924;50.828;6.440;2023-08-06T07:13:26;5.07;;;3.70;;
19554;SDS011;9924;50.828;6.440;2023-08-06T07:15:52;7.90;;;4.00;;
19554;SDS011;9924;50.828;6.440;2023-08-06T07:18:20;7.47;;;3.97;;
19554;SDS011;9924;50.828;6.440;2023-08-06T07:20:49;9.48;;;4.00;;
19554;SDS011;9924;50.828;6.440;2023-08-06T07:23:16;7.38;;;4.07;;
19554;SDS011;9924;50.828;6.440;2023-08-06T07:25:42;5.93;;;3.63;;
19554;SDS011;9924;50.828;6.440;2023-08-06T07:28:08;5.25;;;3.90;;
19554;SDS011;9924;50.828;6.440;2023-08-06T07:30:38;5.40;;;4.32;;
19554;SDS011;9924;50.828;6.440;2023-08-06T07:33:04;6.07;;;4.20;;
19554;SDS011;9924;50.828;6.440;2023-08-06T07:35:29;7.20;;;4.10;;
19554;SDS011;9924;50.828;6.440;2023-08-06T07:37:55;5.35;;;3.90;;
19554;SDS011;9924;50.828;6.440;2023-08-06T07:40:21;4.85;;;3.38;;
19554;SDS011;9924;50.828;6.440;2023-08-06T07:42:47;3.80;;;2.80;;
19554;SDS011;9924;50.828;6.440;2023-08-06T07:45:13;6.25;;;3.38;;
19554;SDS011;9924;50.828;6.440;2023-08-06T07:47:39;4.53;;;3.22;;
19554;SDS011;9924;50.828;6.440;2023-08-06T07:50:06;4.80;;;2.95;;
19554;SDS011;9924;50.828;6.440;2023-08-06T07:52:32;5.60;;;2.53;;
19554;SDS011;9924;50.828;6.440;2023-08-06T07:54:58;5.00;;;2.83;;
19554;SDS011;9924;50.828;6.440;2023-08-06T07:57:25;4.07;;;2.80;;
19554;SDS011;9924;50.828;6.440;2023-08-06T07:59:50;5.20;;;2.55;;
19554;SDS011;9924;50.828;6.440;2023-08-06T08:02:18;2.05;;;1.85;;
19554;SDS011;9924;50.828;6.440;2023-08-06T08:04:44;2.72;;;1.70;;
19554;SDS011;9924;50.828;6.440;2023-08-06T08:07:12;1.88;;;1.23;;
19554;SDS011;9924;50.828;6.440;2023-08-06T08:09:38;1.13;;;0.80;;
19554;SDS011;9924;50.828;6.440;2023-08-06T08:12:04;1.70;;;0.60;;
19554;SDS011;9924;50.828;6.440;2023-08-06T08:14:30;1.27;;;0.60;;
19554;SDS011;9924;50.828;6.440;2023-08-06T08:17:02;1.48;;;0.40;;
19554;SDS011;9924;50.828;6.440;2023-08-06T08:19:29;1.25;;;0.60;;
19554;SDS011;9924;50.828;6.440;2023-08-06T08:21:55;4.75;;;0.82;;
19554;SDS011;9924;50.828;6.440;2023-08-06T08:24:21;1.10;;;0.80;;
19554;SDS011;9924;50.828;6.440;2023-08-06T08:26:49;2.53;;;1.00;;
19554;SDS011;9924;50.828;6.440;2023-08-06T08:29:15;1.58;;;0.93;;
19554;SDS011;9924;50.828;6.440;2023-08-06T08:31:41;4.00;;;1.20;;
19554;SDS011;9924;50.828;6.440;2023-08-06T08:34:08;1.92;;;1.20;;
19554;SDS011;9924;50.828;6.440;2023-08-06T08:36:34;1.98;;;1.40;;
19554;SDS011;9924;50.828;6.440;2023-08-06T08:39:00;2.63;;;1.83;;
19554;SDS011;9924;50.828;6.440;2023-08-06T08:41:29;1.92;;;1.10;;
19554;SDS011;9924;50.828;6.440;2023-08-06T08:43:55;2.20;;;0.90;;
19554;SDS011;9924;50.828;6.440;2023-08-06T08:46:23;1.80;;;0.60;;
19554;SDS011;9924;50.828;6.440;2023-08-06T08:48:51;0.50;;;0.40;;
19554;SDS011;9924;50.828;6.440;2023-08-06T08:51:17;1.65;;;0.45;;
19554;SDS011;9924;50.828;6.440;2023-08-06T08:53:43;0.90;;;0.40;;
19554;SDS011;9924;50.828;6.440;2023-08-06T08:56:10;2.35;;;0.55;;
19554;SDS011;9924;50.828;6.440;2023-08-06T08:58:39;1.85;;;0.80;;
19554;SDS011;9924;50.828;6.440;2023-08-06T09:01:05;3.67;;;0.60;;
19554;SDS011;9924;50.828;6.440;2023-08-06T09:03:32;1.27;;;0.75;;
19554;SDS011;9924;50.828;6.440;2023-08-06T09:05:59;1.13;;;0.80;;
19554;SDS011;9924;50.828;6.440;2023-08-06T09:08:27;1.38;;;0.73;;
19554;SDS011;9924;50.828;6.440;2023-08-06T09:11:04;0.88;;;0.65;;
19554;SDS011;9924;50.828;6.440;2023-08-06T09:13:33;5.28;;;0.90;;
19554;SDS011;9924;50.828;6.440;2023-08-06T09:16:01;2.35;;;1.00;;
19554;SDS011;9924;50.828;6.440;2023-08-06T09:18:29;2.47;;;0.82;;
19554;SDS011;9924;50.828;6.440;2023-08-06T09:20:57;3.50;;;0.70;;
19554;SDS011;9924;50.828;6.440;2023-08-06T09:23:32;1.10;;;0.80;;
19554;SDS011;9924;50.828;6.440;2023-08-06T09:25:58;4.95;;;0.70;;
19554;SDS011;9924;50.828;6.440;2023-08-06T09:28:24;1.83;;;0.70;;
19554;SDS011;9924;50.828;6.440;2023-08-06T09:31:02;1.85;;;0.95;;
19554;SDS011;9924;50.828;6.440;2023-08-06T09:33:29;2.90;;;1.52;;
19554;SDS011;9924;50.828;6.440;2023-08-06T09:35:54;4.68;;;1.67;;
19554;SDS011;9924;50.828;6.440;2023-08-06T09:38:20;2.75;;;1.30;;
19554;SDS011;9924;50.828;6.440;2023-08-06T09:40:46;2.65;;;1.30;;
19554;SDS011;9924;50.828;6.440;2023-08-06T09:43:12;3.30;;;1.85;;
19554;SDS011;9924;50.828;6.440;2023-08-06T09:45:40;3.47;;;1.88;;
19554;SDS011;9924;50.828;6.440;2023-08-06T09:48:07;4.25;;;1.50;;
19554;SDS011;9924;50.828;6.440;2023-08-06T09:50:37;2.80;;;1.65;;
19554;SDS011;9924;50.828;6.440;2023-08-06T09:53:04;3.85;;;1.92;;
19554;SDS011;9924;50.828;6.440;2023-08-06T09:55:30;3.65;;;1.77;;
19554;SDS011;9924;50.828;6.440;2023-08-06T09:57:58;3.35;;;1.52;;
19554;SDS011;9924;50.828;6.440;2023-08-06T10:00:24;3.97;;;1.70;;
19554;SDS011;9924;50.828;6.440;2023-08-06T10:02:51;6.00;;;1.83;;
19554;SDS011;9924;50.828;6.440;2023-08-06T10:05:20;5.97;;;2.25;;
19554;SDS011;9924;50.828;6.440;2023-08-06T10:07:47;5.03;;;2.45;;
19554;SDS011;9924;50.828;6.440;2023-08-06T10:10:15;4.38;;;2.30;;
19554;SDS011;9924;50.828;6.440;2023-08-06T10:12:46;4.68;;;2.00;;
19554;SDS011;9924;50.828;6.440;2023-08-06T10:15:19;5.47;;;1.52;;
19554;SDS011;9924;50.828;6.440;2023-08-06T10:17:57;7.15;;;2.25;;
19554;SDS011;9924;50.828;6.440;2023-08-06T10:20:24;6.00;;;1.60;;
19554;SDS011;9924;50.828;6.440;2023-08-06T10:22:59;6.70;;;1.77;;
19554;SDS011;9924;50.828;6.440;2023-08-06T10:25:32;6.40;;;2.00;;
19554;SDS011;9924;50.828;6.440;2023-08-06T10:27:59;8.32;;;2.05;;
19554;SDS011;9924;50.828;6.440;2023-08-06T10:30:31;7.20;;;2.00;;
19554;SDS011;9924;50.828;6.440;2023-08-06T10:32:58;8.88;;;2.30;;
19554;SDS011;9924;50.828;6.440;2023-08-06T10:38:04;4.38;;;1.90;;
19554;SDS011;9924;50.828;6.440;2023-08-06T10:40:34;6.82;;;2.22;;
19554;SDS011;9924;50.828;6.440;2023-08-06T10:43:01;6.00;;;1.55;;
19554;SDS011;9924;50.828;6.440;2023-08-06T10:45:28;7.63;;;2.03;;
19554;SDS011;9924;50.828;6.440;2023-08-06T10:47:55;6.45;;;1.70;;
19554;SDS011;9924;50.828;6.440;2023-08-06T10:50:24;6.22;;;2.20;;
19554;SDS011;9924;50.828;6.440;2023-08-06T10:52:51;6.03;;;2.20;;
19554;SDS011;9924;50.828;6.440;2023-08-06T10:55:27;4.25;;;1.33;;
19554;SDS011;9924;50.828;6.440;2023-08-06T10:57:54;4.93;;;1.73;;
19554;SDS011;9924;50.828;6.440;2023-08-06T11:00:21;3.05;;;1.73;;
19554;SDS011;9924;50.828;6.440;2023-08-06T11:02:51;5.05;;;1.50;;
19554;SDS011;9924;50.828;6.440;2023-08-06T11:05:17;3.47;;;1.70;;
19554;SDS011;9924;50.828;6.440;2023-08-06T11:07:43;5.72;;;1.75;;
19554;SDS011;9924;50.828;6.440;2023-08-06T11:10:11;5.28;;;2.03;;
19554;SDS011;9924;50.828;6.440;2023-08-06T11:12:38;5.60;;;2.30;;
19554;SDS011;9924;50.828;6.440;2023-08-06T11:15:04;6.57;;;2.22;;
19554;SDS011;9924;50.828;6.440;2023-08-06T11:17:32;6.28;;;2.15;;
19554;SDS011;9924;50.828;6.440;2023-08-06T11:19:59;3.88;;;1.45;;
19554;SDS011;9924;50.828;6.440;2023-08-06T11:22:26;3.03;;;1.88;;
19554;SDS011;9924;50.828;6.440;2023-08-06T11:24:52;2.03;;;1.42;;
19554;SDS011;9924;50.828;6.440;2023-08-06T11:27:19;5.68;;;2.08;;
19554;SDS011;9924;50.828;6.440;2023-08-06T11:29:44;3.33;;;1.90;;
19554;SDS011;9924;50.828;6.440;2023-08-06T11:32:10;3.90;;;1.67;;
19554;SDS011;9924;50.828;6.440;2023-08-06T11:34:37;3.30;;;1.70;;
19554;SDS011;9924;50.828;6.440;2023-08-06T11:37:03;4.38;;;1.90;;
19554;SDS011;9924;50.828;6.440;2023-08-06T11:39:31;2.83;;;1.38;;
19554;SDS011;9924;50.828;6.440;2023-08-06T11:42:02;4.88;;;1.48;;
19554;SDS011;9924;50.828;6.440;2023-08-06T11:44:32;2.97;;;1.30;;
19554;SDS011;9924;50.828;6.440;2023-08-06T11:47:01;5.97;;;1.38;;
19554;SDS011;9924;50.828;6.440;2023-08-06T11:49:45;4.13;;;1.30;;
19554;SDS011;9924;50.828;6.440;2023-08-06T11:57:35;3.83;;;1.20;;
19554;SDS011;9924;50.828;6.440;2023-08-06T12:00:05;2.47;;;0.75;;
19554;SDS011;9924;50.828;6.440;2023-08-06T12:02:34;1.20;;;0.70;;
19554;SDS011;9924;50.828;6.440;2023-08-06T12:05:09;1.08;;;0.70;;
19554;SDS011;9924;50.828;6.440;2023-08-06T12:07:37;1.80;;;0.60;;
19554;SDS011;9924;50.828;6.440;2023-08-06T12:10:06;1.58;;;1.00;;
19554;SDS011;9924;50.828;6.440;2023-08-06T12:12:33;2.38;;;0.80;;
19554;SDS011;9924;50.828;6.440;2023-08-06T12:14:59;2.92;;;0.93;;
19554;SDS011;9924;50.828;6.440;2023-08-06T12:17:25;1.33;;;0.90;;
19554;SDS011;9924;50.828;6.440;2023-08-06T12:19:51;1.65;;;0.52;;
19554;SDS011;9924;50.828;6.440;2023-08-06T12:22:17;1.13;;;0.63;;
19554;SDS011;9924;50.828;6.440;2023-08-06T12:24:43;1.02;;;0.60;;
19554;SDS011;9924;50.828;6.440;2023-08-06T12:27:10;1.70;;;0.80;;
19554;SDS011;9924;50.828;6.440;2023-08-06T12:29:37;1.58;;;0.50;;
19554;SDS011;9924;50.828;6.440;2023-08-06T12:32:07;1.65;;;0.70;;
19554;SDS011;9924;50.828;6.440;2023-08-06T12:34:32;1.33;;;0.70;;
19554;SDS011;9924;50.828;6.440;2023-08-06T12:36:58;1.52;;;0.57;;
19554;SDS011;9924;50.828;6.440;2023-08-06T12:39:24;2.15;;;0.50;;
19554;SDS011;9924;50.828;6.440;2023-08-06T12:41:49;1.20;;;0.73;;
19554;SDS011;9924;50.828;6.440;2023-08-06T12:44:15;2.13;;;0.73;;
19554;SDS011;9924;50.828;6.440;2023-08-06T12:46:41;4.05;;;1.10;;
19554;SDS011;9924;50.828;6.440;2023-08-06T12:49:06;2.47;;;0.95;;
19554;SDS011;9924;50.828;6.440;2023-08-06T12:51:32;4.05;;;1.17;;
19554;SDS011;9924;50.828;6.440;2023-08-06T12:53:59;3.08;;;1.30;;
19554;SDS011;9924;50.828;6.440;2023-08-06T12:56:24;3.22;;;1.10;;
19554;SDS011;9924;50.828;6.440;2023-08-06T12:58:50;4.25;;;1.20;;
19554;SDS011;9924;50.828;6.440;2023-08-06T13:01:16;2.97;;;1.15;;
19554;SDS011;9924;50.828;6.440;2023-08-06T13:03:42;3.72;;;1.70;;
19554;SDS011;9924;50.828;6.440;2023-08-06T13:06:08;4.43;;;1.30;;
19554;SDS011;9924;50.828;6.440;2023-08-06T13:08:34;4.35;;;1.42;;
19554;SDS011;9924;50.828;6.440;2023-08-06T13:11:01;4.25;;;1.25;;
19554;SDS011;9924;50.828;6.440;2023-08-06T13:13:27;3.40;;;1.30;;
19554;SDS011;9924;50.828;6.440;2023-08-06T13:15:52;4.15;;;1.15;;
19554;SDS011;9924;50.828;6.440;2023-08-06T13:18:18;3.17;;;1.00;;
19554;SDS011;9924;50.828;6.440;2023-08-06T13:20:44;6.00;;;1.80;;
19554;SDS011;9924;50.828;6.440;2023-08-06T13:23:11;3.53;;;0.98;;
19554;SDS011;9924;50.828;6.440;2023-08-06T13:25:40;3.53;;;1.10;;
19554;SDS011;9924;50.828;6.440;2023-08-06T13:28:06;3.70;;;1.05;;
19554;SDS011;9924;50.828;6.440;2023-08-06T13:30:31;4.38;;;1.25;;
19554;SDS011;9924;50.828;6.440;2023-08-06T13:33:00;3.83;;;1.00;;
19554;SDS011;9924;50.828;6.440;2023-08-06T13:35:26;5.60;;;1.25;;
19554;SDS011;9924;50.828;6.440;2023-08-06T13:37:52;3.97;;;1.00;;
19554;SDS011;9924;50.828;6.440;2023-08-06T13:40:19;3.22;;;0.90;;
19554;SDS011;9924;50.828;6.440;2023-08-06T13:42:45;3.47;;;0.80;;
19554;SDS011;9924;50.828;6.440;2023-08-06T13:45:10;1.80;;;0.70;;
19554;SDS011;9924;50.828;6.440;2023-08-06T13:47:36;2.05;;;0.77;;
19554;SDS011;9924;50.828;6.440;2023-08-06T13:50:02;2.30;;;0.90;;
19554;SDS011;9924;50.828;6.440;2023-08-06T13:52:28;2.53;;;0.70;;
19554;SDS011;9924;50.828;6.440;2023-08-06T13:54:54;2.53;;;1.00;;
19554;SDS011;9924;50.828;6.440;2023-08-06T13:57:20;1.73;;;1.00;;
19554;SDS011;9924;50.828;6.440;2023-08-06T13:59:45;1.52;;;0.90;;
19554;SDS011;9924;50.828;6.440;2023-08-06T14:02:11;1.38;;;0.80;;
19554;SDS011;9924;50.828;6.440;2023-08-06T14:04:37;2.08;;;0.70;;
19554;SDS011;9924;50.828;6.440;2023-08-06T14:07:03;1.48;;;0.60;;
19554;SDS011;9924;50.828;6.440;2023-08-06T14:09:29;3.15;;;0.60;;
19554;SDS011;9924;50.828;6.440;2023-08-06T14:11:55;0.93;;;0.60;;
19554;SDS011;9924;50.828;6.440;2023-08-06T14:14:20;1.80;;;0.50;;
19554;SDS011;9924;50.828;6.440;2023-08-06T14:16:52;0.82;;;0.60;;
19554;SDS011;9924;50.828;6.440;2023-08-06T14:19:19;1.60;;;0.40;;
19554;SDS011;9924;50.828;6.440;2023-08-06T14:21:45;1.10;;;0.47;;
19554;SDS011;9924;50.828;6.440;2023-08-06T14:24:10;1.30;;;0.57;;
19554;SDS011;9924;50.828;6.440;2023-08-06T14:26:36;1.35;;;0.50;;
19554;SDS011;9924;50.828;6.440;2023-08-06T14:29:02;1.15;;;0.50;;
19554;SDS011;9924;50.828;6.440;2023-08-06T14:31:28;3.10;;;0.68;;
19554;SDS011;9924;50.828;6.440;2023-08-06T14:33:54;5.53;;;0.70;;
19554;SDS011;9924;50.828;6.440;2023-08-06T14:36:19;0.70;;;0.50;;
19554;SDS011;9924;50.828;6.440;2023-08-06T14:38:45;1.45;;;0.60;;
19554;SDS011;9924;50.828;6.440;2023-08-06T14:41:11;1.23;;;0.50;;
19554;SDS011;9924;50.828;6.440;2023-08-06T14:43:36;1.50;;;0.50;;
19554;SDS011;9924;50.828;6.440;2023-08-06T14:46:02;2.08;;;0.70;;
19554;SDS011;9924;50.828;6.440;2023-08-06T14:48:28;2.50;;;0.60;;
19554;SDS011;9924;50.828;6.440;2023-08-06T14:50:55;1.33;;;0.85;;
19554;SDS011;9924;50.828;6.440;2023-08-06T14:53:21;1.98;;;0.80;;
19554;SDS011;9924;50.828;6.440;2023-08-06T14:55:47;0.77;;;0.63;;
19554;SDS011;9924;50.828;6.440;2023-08-06T14:58:13;1.52;;;0.70;;
19554;SDS011;9924;50.828;6.440;2023-08-06T15:00:38;1.50;;;0.90;;
19554;SDS011;9924;50.828;6.440;2023-08-06T15:03:04;1.35;;;0.68;;
19554;SDS011;9924;50.828;6.440;2023-08-06T15:05:30;2.65;;;1.08;;
19554;SDS011;9924;50.828;6.440;2023-08-06T15:07:55;3.85;;;0.80;;
19554;SDS011;9924;50.828;6.440;2023-08-06T15:10:21;1.02;;;0.77;;
19554;SDS011;9924;50.828;6.440;2023-08-06T15:12:47;2.53;;;1.08;;